sensor_id;sensor_type;location;lat;lon;timestamp;P1;durP1;ratioP1;P2;durP2;ratioP2
43883;SDS011;71973;52.018;5.810;2024-02-28T00:00:47;5.10;;;3.63;;
43883;SDS011;71973;52.018;5.810;2024-02-28T00:03:13;7.17;;;3.10;;
43883;SDS011;71973;52.018;5.810;2024-02-28T00:05:38;4.73;;;3.37;;
43883;SDS011;71973;52.018;5.810;2024-02-28T00:08:04;6.60;;;3.33;;
43883;SDS011;71973;52.018;5.810;2024-02-28T00:10:30;6.63;;;4.37;;
43883;SDS011;71973;52.018;5.810;2024-02-28T00:12:56;6.05;;;4.05;;
43883;SDS011;71973;52.018;5.810;2024-02-28T00:15:22;5.13;;;3.65;;
43883;SDS011;71973;52.018;5.810;2024-02-28T00:17:51;5.23;;;3.70;;
43883;SDS011;71973;52.018;5.810;2024-02-28T00:20:18;6.03;;;4.00;;
43883;SDS011;71973;52.018;5.810;2024-02-28T00:22:43;4.10;;;3.30;;
43883;SDS011;71973;52.018;5.810;2024-02-28T00:25:09;4.87;;;3.70;;
43883;SDS011;71973;52.018;5.810;2024-02-28T00:27:36;4.75;;;3.30;;
43883;SDS011;71973;52.018;5.810;2024-02-28T00:30:02;6.50;;;3.60;;
43883;SDS011;71973;52.018;5.810;2024-02-28T00:32:31;5.40;;;3.58;;
43883;SDS011;71973;52.018;5.810;2024-02-28T00:34:57;7.97;;;4.15;;
43883;SDS011;71973;52.018;5.810;2024-02-28T00:37:22;5.10;;;4.00;;
43883;SDS011;71973;52.018;5.810;2024-02-28T00:39:49;4.27;;;3.50;;
43883;SDS011;71973;52.018;5.810;2024-02-28T00:42:15;5.18;;;3.58;;
43883;SDS011;71973;52.018;5.810;2024-02-28T00:44:41;7.03;;;4.10;;
43883;SDS011;71973;52.018;5.810;2024-02-28T00:47:07;4.95;;;4.20;;
43883;SDS011;71973;52.018;5.810;2024-02-28T00:52:00;4.28;;;3.65;;
43883;SDS011;71973;52.018;5.810;2024-02-28T00:54:25;6.37;;;4.47;;
43883;SDS011;71973;52.018;5.810;2024-02-28T00:56:51;4.90;;;3.87;;
43883;SDS011;71973;52.018;5.810;2024-02-28T00:59:17;4.80;;;4.17;;
43883;SDS011;71973;52.018;5.810;2024-02-28T01:01:42;4.73;;;3.90;;
43883;SDS011;71973;52.018;5.810;2024-02-28T01:04:08;5.67;;;4.37;;
43883;SDS011;71973;52.018;5.810;2024-02-28T01:06:34;5.93;;;4.53;;
43883;SDS011;71973;52.018;5.810;2024-02-28T01:09:00;5.63;;;4.00;;
43883;SDS011;71973;52.018;5.810;2024-02-28T01:11:25;5.60;;;4.53;;
43883;SDS011;71973;52.018;5.810;2024-02-28T01:13:51;5.47;;;4.47;;
43883;SDS011;71973;52.018;5.810;2024-02-28T01:16:16;5.17;;;3.73;;
43883;SDS011;71973;52.018;5.810;2024-02-28T01:18:42;5.13;;;4.20;;
43883;SDS011;71973;52.018;5.810;2024-02-28T01:21:08;5.90;;;4.13;;
43883;SDS011;71973;52.018;5.810;2024-02-28T01:23:33;4.37;;;3.90;;
43883;SDS011;71973;52.018;5.810;2024-02-28T01:25:59;5.20;;;4.30;;
43883;SDS011;71973;52.018;5.810;2024-02-28T01:28:27;5.53;;;4.18;;
43883;SDS011;71973;52.018;5.810;2024-02-28T01:30:52;5.63;;;4.40;;
43883;SDS011;71973;52.018;5.810;2024-02-28T01:33:18;6.57;;;4.90;;
43883;SDS011;71973;52.018;5.810;2024-02-28T01:35:43;6.20;;;4.67;;
43883;SDS011;71973;52.018;5.810;2024-02-28T01:38:09;4.87;;;4.10;;
43883;SDS011;71973;52.018;5.810;2024-02-28T01:40:34;6.00;;;4.80;;
43883;SDS011;71973;52.018;5.810;2024-02-28T01:43:03;5.77;;;4.53;;
43883;SDS011;71973;52.018;5.810;2024-02-28T01:45:32;5.30;;;4.55;;
43883;SDS011;71973;52.018;5.810;2024-02-28T01:47:57;5.43;;;4.73;;
43883;SDS011;71973;52.018;5.810;2024-02-28T01:50:23;4.85;;;4.20;;
43883;SDS011;71973;52.018;5.810;2024-02-28T01:52:49;5.53;;;4.53;;
43883;SDS011;71973;52.018;5.810;2024-02-28T01:55:15;5.10;;;4.50;;
43883;SDS011;71973;52.018;5.810;2024-02-28T01:57:40;4.97;;;4.20;;
43883;SDS011;71973;52.018;5.810;2024-02-28T02:00:06;6.60;;;4.33;;
43883;SDS011;71973;52.018;5.810;2024-02-28T02:02:36;5.65;;;4.47;;
43883;SDS011;71973;52.018;5.810;2024-02-28T02:05:02;5.50;;;4.38;;
43883;SDS011;71973;52.018;5.810;2024-02-28T02:07:27;5.18;;;4.13;;
43883;SDS011;71973;52.018;5.810;2024-02-28T02:09:53;4.73;;;4.23;;
43883;SDS011;71973;52.018;5.810;2024-02-28T02:12:19;5.25;;;4.55;;
43883;SDS011;71973;52.018;5.810;2024-02-28T02:14:48;5.17;;;4.50;;
43883;SDS011;71973;52.018;5.810;2024-02-28T02:17:14;5.78;;;4.40;;
43883;SDS011;71973;52.018;5.810;2024-02-28T02:19:39;4.17;;;3.67;;
43883;SDS011;71973;52.018;5.810;2024-02-28T02:22:05;5.25;;;4.25;;
43883;SDS011;71973;52.018;5.810;2024-02-28T02:24:34;4.85;;;4.07;;
43883;SDS011;71973;52.018;5.810;2024-02-28T02:27:00;4.97;;;4.27;;
43883;SDS011;71973;52.018;5.810;2024-02-28T02:29:27;5.25;;;4.65;;
43883;SDS011;71973;52.018;5.810;2024-02-28T02:31:53;6.15;;;4.68;;
43883;SDS011;71973;52.018;5.810;2024-02-28T02:34:19;5.37;;;4.47;;
43883;SDS011;71973;52.018;5.810;2024-02-28T02:36:44;5.30;;;4.27;;
43883;SDS011;71973;52.018;5.810;2024-02-28T02:39:10;4.40;;;3.90;;
43883;SDS011;71973;52.018;5.810;2024-02-28T02:41:36;4.80;;;4.27;;
43883;SDS011;71973;52.018;5.810;2024-02-28T02:44:01;4.60;;;3.93;;
43883;SDS011;71973;52.018;5.810;2024-02-28T02:46:27;5.63;;;4.30;;
43883;SDS011;71973;52.018;5.810;2024-02-28T02:48:52;5.10;;;4.37;;
43883;SDS011;71973;52.018;5.810;2024-02-28T02:51:19;5.50;;;4.60;;
43883;SDS011;71973;52.018;5.810;2024-02-28T02:53:44;5.07;;;3.58;;
43883;SDS011;71973;52.018;5.810;2024-02-28T02:56:10;4.63;;;4.13;;
43883;SDS011;71973;52.018;5.810;2024-02-28T02:58:36;4.47;;;3.57;;
43883;SDS011;71973;52.018;5.810;2024-02-28T03:01:01;4.77;;;3.83;;
43883;SDS011;71973;52.018;5.810;2024-02-28T03:03:27;3.90;;;3.42;;
43883;SDS011;71973;52.018;5.810;2024-02-28T03:05:53;5.17;;;3.60;;
43883;SDS011;71973;52.018;5.810;2024-02-28T03:08:18;4.23;;;3.67;;
43883;SDS011;71973;52.018;5.810;2024-02-28T03:10:44;4.47;;;3.93;;
43883;SDS011;71973;52.018;5.810;2024-02-28T03:13:09;5.27;;;4.20;;
43883;SDS011;71973;52.018;5.810;2024-02-28T03:15:35;4.93;;;4.03;;
43883;SDS011;71973;52.018;5.810;2024-02-28T03:18:00;4.67;;;3.80;;
43883;SDS011;71973;52.018;5.810;2024-02-28T03:20:27;4.97;;;4.00;;
43883;SDS011;71973;52.018;5.810;2024-02-28T03:22:52;4.47;;;3.67;;
43883;SDS011;71973;52.018;5.810;2024-02-28T03:25:18;3.87;;;3.17;;
43883;SDS011;71973;52.018;5.810;2024-02-28T03:27:43;5.23;;;3.90;;
43883;SDS011;71973;52.018;5.810;2024-02-28T03:30:09;4.60;;;4.00;;
43883;SDS011;71973;52.018;5.810;2024-02-28T03:32:35;4.05;;;3.55;;
43883;SDS011;71973;52.018;5.810;2024-02-28T03:35:00;4.03;;;3.43;;
43883;SDS011;71973;52.018;5.810;2024-02-28T03:37:26;4.00;;;3.53;;
43883;SDS011;71973;52.018;5.810;2024-02-28T03:39:51;4.70;;;3.80;;
43883;SDS011;71973;52.018;5.810;2024-02-28T03:42:17;4.13;;;3.60;;
43883;SDS011;71973;52.018;5.810;2024-02-28T03:44:42;4.43;;;3.83;;
43883;SDS011;71973;52.018;5.810;2024-02-28T03:47:08;4.20;;;3.67;;
43883;SDS011;71973;52.018;5.810;2024-02-28T03:49:34;3.80;;;3.40;;
43883;SDS011;71973;52.018;5.810;2024-02-28T03:51:59;4.17;;;3.57;;
43883;SDS011;71973;52.018;5.810;2024-02-28T03:56:51;4.78;;;3.88;;
43883;SDS011;71973;52.018;5.810;2024-02-28T03:59:17;3.50;;;3.20;;
43883;SDS011;71973;52.018;5.810;2024-02-28T04:01:43;3.23;;;2.87;;
43883;SDS011;71973;52.018;5.810;2024-02-28T04:04:08;4.83;;;3.67;;
43883;SDS011;71973;52.018;5.810;2024-02-28T04:06:34;4.43;;;4.00;;
43883;SDS011;71973;52.018;5.810;2024-02-28T04:08:59;3.93;;;2.90;;
43883;SDS011;71973;52.018;5.810;2024-02-28T04:11:25;3.80;;;3.38;;
43883;SDS011;71973;52.018;5.810;2024-02-28T04:13:51;3.73;;;3.33;;
43883;SDS011;71973;52.018;5.810;2024-02-28T04:16:16;4.33;;;3.50;;
43883;SDS011;71973;52.018;5.810;2024-02-28T04:18:43;4.10;;;2.90;;
43883;SDS011;71973;52.018;5.810;2024-02-28T04:21:09;3.47;;;3.13;;
43883;SDS011;71973;52.018;5.810;2024-02-28T04:23:34;4.07;;;3.17;;
43883;SDS011;71973;52.018;5.810;2024-02-28T04:26:00;3.63;;;3.03;;
43883;SDS011;71973;52.018;5.810;2024-02-28T04:28:26;3.35;;;3.05;;
43883;SDS011;71973;52.018;5.810;2024-02-28T04:30:52;4.47;;;2.97;;
43883;SDS011;71973;52.018;5.810;2024-02-28T04:33:18;3.77;;;3.23;;
43883;SDS011;71973;52.018;5.810;2024-02-28T04:35:43;3.13;;;2.77;;
43883;SDS011;71973;52.018;5.810;2024-02-28T04:38:09;4.00;;;3.27;;
43883;SDS011;71973;52.018;5.810;2024-02-28T04:40:34;4.03;;;3.00;;
43883;SDS011;71973;52.018;5.810;2024-02-28T04:45:27;3.33;;;2.90;;
43883;SDS011;71973;52.018;5.810;2024-02-28T04:47:52;3.80;;;3.07;;
43883;SDS011;71973;52.018;5.810;2024-02-28T04:50:19;4.15;;;3.47;;
43883;SDS011;71973;52.018;5.810;2024-02-28T04:52:44;3.43;;;2.93;;
43883;SDS011;71973;52.018;5.810;2024-02-28T04:55:10;3.57;;;2.73;;
43883;SDS011;71973;52.018;5.810;2024-02-28T04:57:37;3.20;;;2.80;;
43883;SDS011;71973;52.018;5.810;2024-02-28T05:00:03;3.30;;;3.00;;
43883;SDS011;71973;52.018;5.810;2024-02-28T05:02:29;3.22;;;2.72;;
43883;SDS011;71973;52.018;5.810;2024-02-28T05:04:54;3.43;;;3.10;;
43883;SDS011;71973;52.018;5.810;2024-02-28T05:07:20;3.27;;;2.73;;
43883;SDS011;71973;52.018;5.810;2024-02-28T05:09:45;3.30;;;2.57;;
43883;SDS011;71973;52.018;5.810;2024-02-28T05:12:11;3.33;;;2.70;;
43883;SDS011;71973;52.018;5.810;2024-02-28T05:14:37;3.63;;;3.08;;
43883;SDS011;71973;52.018;5.810;2024-02-28T05:17:03;3.43;;;2.87;;
43883;SDS011;71973;52.018;5.810;2024-02-28T05:19:28;3.67;;;2.78;;
43883;SDS011;71973;52.018;5.810;2024-02-28T05:21:54;3.10;;;2.77;;
43883;SDS011;71973;52.018;5.810;2024-02-28T05:24:20;3.73;;;2.70;;
43883;SDS011;71973;52.018;5.810;2024-02-28T05:26:45;3.30;;;2.70;;
43883;SDS011;71973;52.018;5.810;2024-02-28T05:29:11;3.17;;;2.63;;
43883;SDS011;71973;52.018;5.810;2024-02-28T05:31:36;3.23;;;2.40;;
43883;SDS011;71973;52.018;5.810;2024-02-28T05:36:29;2.83;;;2.40;;
43883;SDS011;71973;52.018;5.810;2024-02-28T05:38:55;3.30;;;2.75;;
43883;SDS011;71973;52.018;5.810;2024-02-28T05:41:22;3.72;;;2.67;;
43883;SDS011;71973;52.018;5.810;2024-02-28T05:43:48;3.35;;;2.72;;
43883;SDS011;71973;52.018;5.810;2024-02-28T05:46:15;3.13;;;2.57;;
43883;SDS011;71973;52.018;5.810;2024-02-28T05:48:41;3.30;;;2.78;;
43883;SDS011;71973;52.018;5.810;2024-02-28T05:51:10;3.50;;;2.70;;
43883;SDS011;71973;52.018;5.810;2024-02-28T05:53:36;3.17;;;2.50;;
43883;SDS011;71973;52.018;5.810;2024-02-28T05:56:03;3.28;;;2.70;;
43883;SDS011;71973;52.018;5.810;2024-02-28T06:00:55;3.42;;;2.80;;
43883;SDS011;71973;52.018;5.810;2024-02-28T06:03:21;3.78;;;2.92;;
43883;SDS011;71973;52.018;5.810;2024-02-28T06:05:47;3.57;;;2.87;;
43883;SDS011;71973;52.018;5.810;2024-02-28T06:08:13;3.78;;;2.85;;
43883;SDS011;71973;52.018;5.810;2024-02-28T06:10:38;3.83;;;3.10;;
43883;SDS011;71973;52.018;5.810;2024-02-28T06:13:04;3.07;;;2.47;;
43883;SDS011;71973;52.018;5.810;2024-02-28T06:15:30;3.40;;;2.90;;
43883;SDS011;71973;52.018;5.810;2024-02-28T06:17:59;3.03;;;2.47;;
43883;SDS011;71973;52.018;5.810;2024-02-28T06:20:27;3.17;;;2.58;;
43883;SDS011;71973;52.018;5.810;2024-02-28T06:22:53;3.17;;;2.47;;
43883;SDS011;71973;52.018;5.810;2024-02-28T06:25:18;3.80;;;2.80;;
43883;SDS011;71973;52.018;5.810;2024-02-28T06:27:47;3.78;;;2.80;;
43883;SDS011;71973;52.018;5.810;2024-02-28T06:30:13;3.83;;;2.83;;
43883;SDS011;71973;52.018;5.810;2024-02-28T06:32:39;4.63;;;2.88;;
43883;SDS011;71973;52.018;5.810;2024-02-28T06:35:05;3.97;;;3.10;;
43883;SDS011;71973;52.018;5.810;2024-02-28T06:37:32;2.90;;;2.28;;
43883;SDS011;71973;52.018;5.810;2024-02-28T06:39:58;3.88;;;2.97;;
43883;SDS011;71973;52.018;5.810;2024-02-28T06:42:24;3.50;;;2.43;;
43883;SDS011;71973;52.018;5.810;2024-02-28T06:44:49;4.80;;;2.60;;
43883;SDS011;71973;52.018;5.810;2024-02-28T06:47:15;3.30;;;2.40;;
43883;SDS011;71973;52.018;5.810;2024-02-28T06:49:41;3.70;;;3.03;;
43883;SDS011;71973;52.018;5.810;2024-02-28T06:52:06;3.47;;;2.80;;
43883;SDS011;71973;52.018;5.810;2024-02-28T06:54:32;3.80;;;3.13;;
43883;SDS011;71973;52.018;5.810;2024-02-28T06:56:57;3.17;;;2.57;;
43883;SDS011;71973;52.018;5.810;2024-02-28T06:59:23;3.13;;;2.70;;
43883;SDS011;71973;52.018;5.810;2024-02-28T07:01:49;5.57;;;3.17;;
43883;SDS011;71973;52.018;5.810;2024-02-28T07:04:14;5.77;;;3.20;;
43883;SDS011;71973;52.018;5.810;2024-02-28T07:06:40;3.77;;;2.83;;
43883;SDS011;71973;52.018;5.810;2024-02-28T07:09:08;6.77;;;3.23;;
43883;SDS011;71973;52.018;5.810;2024-02-28T07:11:34;4.07;;;3.22;;
43883;SDS011;71973;52.018;5.810;2024-02-28T07:14:00;4.00;;;3.10;;
43883;SDS011;71973;52.018;5.810;2024-02-28T07:16:29;4.93;;;3.10;;
43883;SDS011;71973;52.018;5.810;2024-02-28T07:18:55;4.60;;;3.33;;
43883;SDS011;71973;52.018;5.810;2024-02-28T07:21:20;4.63;;;3.43;;
43883;SDS011;71973;52.018;5.810;2024-02-28T07:23:46;5.17;;;3.43;;
43883;SDS011;71973;52.018;5.810;2024-02-28T07:26:15;4.20;;;3.30;;
43883;SDS011;71973;52.018;5.810;2024-02-28T07:28:41;5.00;;;4.20;;
43883;SDS011;71973;52.018;5.810;2024-02-28T07:31:07;6.30;;;3.57;;
43883;SDS011;71973;52.018;5.810;2024-02-28T07:33:39;6.63;;;3.60;;
43883;SDS011;71973;52.018;5.810;2024-02-28T07:36:05;4.85;;;3.95;;
43883;SDS011;71973;52.018;5.810;2024-02-28T07:38:31;4.30;;;3.65;;
43883;SDS011;71973;52.018;5.810;2024-02-28T07:43:23;5.88;;;3.90;;
43883;SDS011;71973;52.018;5.810;2024-02-28T07:45:48;5.17;;;3.70;;
43883;SDS011;71973;52.018;5.810;2024-02-28T07:48:14;5.07;;;3.67;;
43883;SDS011;71973;52.018;5.810;2024-02-28T07:50:42;5.32;;;4.30;;
43883;SDS011;71973;52.018;5.810;2024-02-28T07:53:11;5.35;;;3.90;;
43883;SDS011;71973;52.018;5.810;2024-02-28T07:55:37;4.80;;;3.90;;
43883;SDS011;71973;52.018;5.810;2024-02-28T07:58:03;5.88;;;3.85;;
43883;SDS011;71973;52.018;5.810;2024-02-28T08:00:31;6.05;;;4.35;;
43883;SDS011;71973;52.018;5.810;2024-02-28T08:02:58;5.68;;;4.15;;
43883;SDS011;71973;52.018;5.810;2024-02-28T08:05:24;5.90;;;4.33;;
43883;SDS011;71973;52.018;5.810;2024-02-28T08:07:49;4.97;;;3.73;;
43883;SDS011;71973;52.018;5.810;2024-02-28T08:10:15;4.97;;;3.90;;
43883;SDS011;71973;52.018;5.810;2024-02-28T08:12:40;6.43;;;4.23;;
43883;SDS011;71973;52.018;5.810;2024-02-28T08:15:06;5.13;;;4.00;;
43883;SDS011;71973;52.018;5.810;2024-02-28T08:17:32;5.60;;;3.80;;
43883;SDS011;71973;52.018;5.810;2024-02-28T08:19:58;5.38;;;3.95;;
43883;SDS011;71973;52.018;5.810;2024-02-28T08:22:23;5.80;;;3.80;;
43883;SDS011;71973;52.018;5.810;2024-02-28T08:24:52;5.95;;;4.32;;
43883;SDS011;71973;52.018;5.810;2024-02-28T08:27:18;7.55;;;4.13;;
43883;SDS011;71973;52.018;5.810;2024-02-28T08:29:44;5.20;;;3.88;;
43883;SDS011;71973;52.018;5.810;2024-02-28T08:32:11;5.30;;;4.00;;
43883;SDS011;71973;52.018;5.810;2024-02-28T08:34:37;6.22;;;3.92;;
43883;SDS011;71973;52.018;5.810;2024-02-28T08:37:02;5.37;;;4.07;;
43883;SDS011;71973;52.018;5.810;2024-02-28T08:39:28;5.20;;;3.53;;
43883;SDS011;71973;52.018;5.810;2024-02-28T08:41:53;4.90;;;3.70;;
43883;SDS011;71973;52.018;5.810;2024-02-28T08:44:19;5.30;;;4.00;;
43883;SDS011;71973;52.018;5.810;2024-02-28T08:46:48;5.90;;;4.38;;
43883;SDS011;71973;52.018;5.810;2024-02-28T08:49:14;5.18;;;3.92;;
43883;SDS011;71973;52.018;5.810;2024-02-28T08:51:40;5.60;;;3.80;;
43883;SDS011;71973;52.018;5.810;2024-02-28T08:54:06;5.17;;;4.30;;
43883;SDS011;71973;52.018;5.810;2024-02-28T08:56:31;6.20;;;4.28;;
43883;SDS011;71973;52.018;5.810;2024-02-28T08:58:58;5.50;;;4.03;;
43883;SDS011;71973;52.018;5.810;2024-02-28T09:01:23;5.87;;;4.47;;
43883;SDS011;71973;52.018;5.810;2024-02-28T09:03:49;7.70;;;4.50;;
43883;SDS011;71973;52.018;5.810;2024-02-28T09:06:15;5.63;;;4.33;;
43883;SDS011;71973;52.018;5.810;2024-02-28T09:08:40;7.00;;;4.70;;
43883;SDS011;71973;52.018;5.810;2024-02-28T09:11:06;5.70;;;4.17;;
43883;SDS011;71973;52.018;5.810;2024-02-28T09:13:32;6.27;;;4.27;;
43883;SDS011;71973;52.018;5.810;2024-02-28T09:15:57;5.27;;;4.13;;
43883;SDS011;71973;52.018;5.810;2024-02-28T09:18:23;7.13;;;3.90;;
43883;SDS011;71973;52.018;5.810;2024-02-28T09:20:49;6.67;;;4.53;;
43883;SDS011;71973;52.018;5.810;2024-02-28T09:23:14;6.67;;;4.43;;
43883;SDS011;71973;52.018;5.810;2024-02-28T09:25:40;10.37;;;5.23;;
43883;SDS011;71973;52.018;5.810;2024-02-28T09:28:05;7.50;;;5.43;;
43883;SDS011;71973;52.018;5.810;2024-02-28T09:30:31;8.97;;;5.70;;
43883;SDS011;71973;52.018;5.810;2024-02-28T09:32:57;9.23;;;5.60;;
43883;SDS011;71973;52.018;5.810;2024-02-28T09:35:22;7.40;;;5.57;;
43883;SDS011;71973;52.018;5.810;2024-02-28T09:37:48;7.60;;;5.23;;
43883;SDS011;71973;52.018;5.810;2024-02-28T09:40:13;7.40;;;5.07;;
43883;SDS011;71973;52.018;5.810;2024-02-28T09:42:39;7.70;;;5.03;;
43883;SDS011;71973;52.018;5.810;2024-02-28T09:45:05;8.20;;;5.23;;
43883;SDS011;71973;52.018;5.810;2024-02-28T09:47:35;7.22;;;5.15;;
43883;SDS011;71973;52.018;5.810;2024-02-28T09:50:00;8.30;;;5.70;;
43883;SDS011;71973;52.018;5.810;2024-02-28T09:52:27;8.93;;;5.40;;
43883;SDS011;71973;52.018;5.810;2024-02-28T09:54:53;7.17;;;5.47;;
43883;SDS011;71973;52.018;5.810;2024-02-28T09:57:19;7.57;;;6.00;;
43883;SDS011;71973;52.018;5.810;2024-02-28T09:59:45;8.38;;;5.57;;
43883;SDS011;71973;52.018;5.810;2024-02-28T10:02:11;9.35;;;6.43;;
43883;SDS011;71973;52.018;5.810;2024-02-28T10:04:38;8.43;;;5.40;;
43883;SDS011;71973;52.018;5.810;2024-02-28T10:07:11;9.30;;;5.82;;
43883;SDS011;71973;52.018;5.810;2024-02-28T10:09:38;9.15;;;5.78;;
43883;SDS011;71973;52.018;5.810;2024-02-28T10:12:04;7.83;;;5.87;;
43883;SDS011;71973;52.018;5.810;2024-02-28T10:14:30;8.35;;;5.60;;
43883;SDS011;71973;52.018;5.810;2024-02-28T10:16:56;8.30;;;6.10;;
43883;SDS011;71973;52.018;5.810;2024-02-28T10:19:21;8.97;;;5.97;;
43883;SDS011;71973;52.018;5.810;2024-02-28T10:21:47;8.67;;;6.83;;
43883;SDS011;71973;52.018;5.810;2024-02-28T10:24:12;9.53;;;6.27;;
43883;SDS011;71973;52.018;5.810;2024-02-28T10:26:42;8.52;;;6.45;;
43883;SDS011;71973;52.018;5.810;2024-02-28T10:29:09;8.85;;;6.90;;
43883;SDS011;71973;52.018;5.810;2024-02-28T10:31:35;9.18;;;6.20;;
43883;SDS011;71973;52.018;5.810;2024-02-28T10:34:01;11.10;;;6.20;;
43883;SDS011;71973;52.018;5.810;2024-02-28T10:36:29;12.02;;;6.80;;
43883;SDS011;71973;52.018;5.810;2024-02-28T10:38:57;8.38;;;6.65;;
43883;SDS011;71973;52.018;5.810;2024-02-28T10:41:25;7.85;;;6.10;;
43883;SDS011;71973;52.018;5.810;2024-02-28T10:43:53;9.50;;;6.43;;
43883;SDS011;71973;52.018;5.810;2024-02-28T10:46:19;7.85;;;6.38;;
43883;SDS011;71973;52.018;5.810;2024-02-28T10:48:46;9.10;;;6.68;;
43883;SDS011;71973;52.018;5.810;2024-02-28T10:51:18;9.40;;;6.70;;
43883;SDS011;71973;52.018;5.810;2024-02-28T10:53:49;9.25;;;6.72;;
43883;SDS011;71973;52.018;5.810;2024-02-28T10:56:20;9.98;;;7.05;;
43883;SDS011;71973;52.018;5.810;2024-02-28T10:58:49;9.63;;;7.03;;
43883;SDS011;71973;52.018;5.810;2024-02-28T11:01:17;9.50;;;6.70;;
43883;SDS011;71973;52.018;5.810;2024-02-28T11:03:44;9.30;;;6.55;;
43883;SDS011;71973;52.018;5.810;2024-02-28T11:06:16;8.35;;;6.80;;
43883;SDS011;71973;52.018;5.810;2024-02-28T11:08:45;8.98;;;6.43;;
43883;SDS011;71973;52.018;5.810;2024-02-28T11:11:13;9.40;;;6.53;;
43883;SDS011;71973;52.018;5.810;2024-02-28T11:13:50;8.73;;;6.68;;
43883;SDS011;71973;52.018;5.810;2024-02-28T11:16:32;9.27;;;7.18;;
43883;SDS011;71973;52.018;5.810;2024-02-28T11:18:58;8.07;;;6.43;;
43883;SDS011;71973;52.018;5.810;2024-02-28T11:21:26;9.25;;;6.90;;
43883;SDS011;71973;52.018;5.810;2024-02-28T11:24:00;7.93;;;6.45;;
43883;SDS011;71973;52.018;5.810;2024-02-28T11:26:26;9.85;;;6.68;;
43883;SDS011;71973;52.018;5.810;2024-02-28T11:28:53;9.95;;;7.00;;
43883;SDS011;71973;52.018;5.810;2024-02-28T11:31:20;9.45;;;6.75;;
43883;SDS011;71973;52.018;5.810;2024-02-28T11:33:46;8.73;;;6.80;;
43883;SDS011;71973;52.018;5.810;2024-02-28T11:36:12;7.93;;;6.50;;
43883;SDS011;71973;52.018;5.810;2024-02-28T11:38:39;10.43;;;6.68;;
43883;SDS011;71973;52.018;5.810;2024-02-28T11:41:05;11.23;;;7.78;;
43883;SDS011;71973;52.018;5.810;2024-02-28T11:43:31;9.82;;;8.05;;
43883;SDS011;71973;52.018;5.810;2024-02-28T11:45:57;11.07;;;7.88;;
43883;SDS011;71973;52.018;5.810;2024-02-28T11:48:24;12.65;;;7.97;;
43883;SDS011;71973;52.018;5.810;2024-02-28T11:50:51;11.05;;;8.18;;
43883;SDS011;71973;52.018;5.810;2024-02-28T11:53:17;10.52;;;8.27;;
43883;SDS011;71973;52.018;5.810;2024-02-28T11:55:43;10.40;;;7.70;;
43883;SDS011;71973;52.018;5.810;2024-02-28T11:58:09;11.15;;;8.35;;
43883;SDS011;71973;52.018;5.810;2024-02-28T12:00:46;11.47;;;8.97;;
43883;SDS011;71973;52.018;5.810;2024-02-28T12:03:12;12.70;;;8.80;;
43883;SDS011;71973;52.018;5.810;2024-02-28T12:05:38;10.93;;;8.17;;
43883;SDS011;71973;52.018;5.810;2024-02-28T12:08:04;10.07;;;8.03;;
43883;SDS011;71973;52.018;5.810;2024-02-28T12:10:30;10.48;;;8.95;;
43883;SDS011;71973;52.018;5.810;2024-02-28T12:15:25;11.95;;;8.38;;
43883;SDS011;71973;52.018;5.810;2024-02-28T12:17:54;14.00;;;8.75;;
43883;SDS011;71973;52.018;5.810;2024-02-28T12:20:19;12.37;;;8.20;;
43883;SDS011;71973;52.018;5.810;2024-02-28T12:22:45;13.37;;;7.60;;
43883;SDS011;71973;52.018;5.810;2024-02-28T12:25:11;10.50;;;7.57;;
43883;SDS011;71973;52.018;5.810;2024-02-28T12:27:36;12.20;;;8.20;;
43883;SDS011;71973;52.018;5.810;2024-02-28T12:30:02;12.50;;;7.43;;
43883;SDS011;71973;52.018;5.810;2024-02-28T12:32:28;13.53;;;8.10;;
43883;SDS011;71973;52.018;5.810;2024-02-28T12:34:53;14.57;;;8.10;;
43883;SDS011;71973;52.018;5.810;2024-02-28T12:37:19;11.00;;;7.13;;
43883;SDS011;71973;52.018;5.810;2024-02-28T12:39:45;15.80;;;7.17;;
43883;SDS011;71973;52.018;5.810;2024-02-28T12:42:12;13.00;;;6.95;;
43883;SDS011;71973;52.018;5.810;2024-02-28T12:44:38;11.10;;;6.40;;
43883;SDS011;71973;52.018;5.810;2024-02-28T12:47:05;10.77;;;6.47;;
43883;SDS011;71973;52.018;5.810;2024-02-28T12:49:31;11.63;;;6.82;;
43883;SDS011;71973;52.018;5.810;2024-02-28T12:51:57;10.37;;;6.73;;
43883;SDS011;71973;52.018;5.810;2024-02-28T12:54:22;10.73;;;6.33;;
43883;SDS011;71973;52.018;5.810;2024-02-28T12:56:48;10.43;;;6.20;;
43883;SDS011;71973;52.018;5.810;2024-02-28T12:59:14;11.48;;;5.63;;
43883;SDS011;71973;52.018;5.810;2024-02-28T13:01:40;13.45;;;6.18;;
43883;SDS011;71973;52.018;5.810;2024-02-28T13:04:06;9.60;;;5.93;;
43883;SDS011;71973;52.018;5.810;2024-02-28T13:06:32;9.23;;;5.30;;
43883;SDS011;71973;52.018;5.810;2024-02-28T13:08:58;9.67;;;5.50;;
43883;SDS011;71973;52.018;5.810;2024-02-28T13:11:23;10.00;;;6.27;;
43883;SDS011;71973;52.018;5.810;2024-02-28T13:13:51;9.90;;;5.50;;
43883;SDS011;71973;52.018;5.810;2024-02-28T13:16:18;8.20;;;5.32;;
43883;SDS011;71973;52.018;5.810;2024-02-28T13:18:44;8.07;;;5.30;;
43883;SDS011;71973;52.018;5.810;2024-02-28T13:21:10;10.77;;;5.53;;
43883;SDS011;71973;52.018;5.810;2024-02-28T13:23:36;7.65;;;5.00;;
43883;SDS011;71973;52.018;5.810;2024-02-28T13:26:05;8.77;;;5.63;;
43883;SDS011;71973;52.018;5.810;2024-02-28T13:28:32;8.70;;;5.38;;
43883;SDS011;71973;52.018;5.810;2024-02-28T13:30:58;7.13;;;4.78;;
43883;SDS011;71973;52.018;5.810;2024-02-28T13:33:25;11.15;;;5.05;;
43883;SDS011;71973;52.018;5.810;2024-02-28T13:35:51;8.52;;;4.82;;
43883;SDS011;71973;52.018;5.810;2024-02-28T13:38:18;7.10;;;4.22;;
43883;SDS011;71973;52.018;5.810;2024-02-28T13:40:44;9.95;;;4.93;;
43883;SDS011;71973;52.018;5.810;2024-02-28T13:43:13;10.95;;;4.70;;
43883;SDS011;71973;52.018;5.810;2024-02-28T13:45:39;5.93;;;4.50;;
43883;SDS011;71973;52.018;5.810;2024-02-28T13:48:15;8.05;;;4.97;;
43883;SDS011;71973;52.018;5.810;2024-02-28T13:50:42;8.23;;;5.28;;
43883;SDS011;71973;52.018;5.810;2024-02-28T13:53:08;5.82;;;4.40;;
43883;SDS011;71973;52.018;5.810;2024-02-28T13:55:34;7.33;;;4.83;;
43883;SDS011;71973;52.018;5.810;2024-02-28T13:57:59;6.27;;;4.53;;
43883;SDS011;71973;52.018;5.810;2024-02-28T14:00:25;6.07;;;4.30;;
43883;SDS011;71973;52.018;5.810;2024-02-28T14:02:51;7.97;;;4.67;;
43883;SDS011;71973;52.018;5.810;2024-02-28T14:05:16;6.73;;;4.37;;
43883;SDS011;71973;52.018;5.810;2024-02-28T14:07:42;7.73;;;4.27;;
43883;SDS011;71973;52.018;5.810;2024-02-28T14:10:07;5.90;;;4.30;;
43883;SDS011;71973;52.018;5.810;2024-02-28T14:12:36;7.47;;;4.57;;
43883;SDS011;71973;52.018;5.810;2024-02-28T14:15:02;5.38;;;4.13;;
43883;SDS011;71973;52.018;5.810;2024-02-28T14:17:29;8.43;;;3.95;;
43883;SDS011;71973;52.018;5.810;2024-02-28T14:19:55;6.73;;;4.17;;
43883;SDS011;71973;52.018;5.810;2024-02-28T14:22:20;5.10;;;4.00;;
43883;SDS011;71973;52.018;5.810;2024-02-28T14:24:46;4.93;;;3.70;;
43883;SDS011;71973;52.018;5.810;2024-02-28T14:27:11;7.40;;;4.53;;
43883;SDS011;71973;52.018;5.810;2024-02-28T14:29:37;7.17;;;4.10;;
43883;SDS011;71973;52.018;5.810;2024-02-28T14:32:02;5.50;;;4.00;;
43883;SDS011;71973;52.018;5.810;2024-02-28T14:34:29;7.95;;;3.88;;
43883;SDS011;71973;52.018;5.810;2024-02-28T14:36:56;4.40;;;4.00;;
43883;SDS011;71973;52.018;5.810;2024-02-28T14:39:22;9.33;;;4.13;;
43883;SDS011;71973;52.018;5.810;2024-02-28T14:41:47;5.20;;;3.40;;
43883;SDS011;71973;52.018;5.810;2024-02-28T14:44:13;4.83;;;3.70;;
43883;SDS011;71973;52.018;5.810;2024-02-28T14:46:41;5.00;;;3.60;;
43883;SDS011;71973;52.018;5.810;2024-02-28T14:49:07;7.53;;;3.95;;
43883;SDS011;71973;52.018;5.810;2024-02-28T14:51:34;5.05;;;3.67;;
43883;SDS011;71973;52.018;5.810;2024-02-28T14:53:59;5.87;;;3.97;;
43883;SDS011;71973;52.018;5.810;2024-02-28T14:56:25;7.13;;;3.80;;